KBAB

Beale AFB Airport

Marysville, California, USA
METAR KBAB 190658Z AUTO 12007KT 10SM CLR 27/13 A2982 RMK AO2 SLP100 T02650132 $
Observed Flight Rules
Jul-19 @ 06:58 UTC (48 minutes ago) Visual Flight Rules
Wind Visibility Clouds
120° at 7 knots 10 miles
  • Clear skies
Temperatures Readings
Current 27°C / 81°F
Dewpoint 13°C / 55°F
Humidity 42%
Altimeter 29.82" Hg
Pressure 1010 hPa
Elevation 34
METAR KBAB 190658Z AUTO 12007KT 10SM CLR 27/13 A2982 RMK AO2 SLP100 T02650132 $
Observed Flight Rules
Jul-19 @ 06:58 UTC
(48 minutes ago)
VFR
Wind Visibility
120° at 7 knots 10 miles
Clouds
  • Clear skies
Temperature Dewpoint
27°C / 81°F 13°C / 55°F
Humidity Altimeter Pressure
42% 29.82" Hg 1010 hPa